sensor_id;sensor_type;location;lat;lon;timestamp;temperature;humidity
48328;DHT22;34136;51.022;7.082;2024-02-23T01:25:36;6.80;99.90
48328;DHT22;34136;51.022;7.082;2024-02-23T01:28:22;6.80;99.90
48328;DHT22;34136;51.022;7.082;2024-02-23T01:31:08;6.80;99.90
48328;DHT22;34136;51.022;7.082;2024-02-23T01:33:54;6.70;99.90
48328;DHT22;34136;51.022;7.082;2024-02-23T01:36:40;6.70;99.90
48328;DHT22;34136;51.022;7.082;2024-02-23T01:39:26;6.60;99.90
48328;DHT22;34136;51.022;7.082;2024-02-23T01:42:12;6.60;99.90
48328;DHT22;34136;51.022;7.082;2024-02-23T01:44:58;6.60;99.90
48328;DHT22;34136;51.022;7.082;2024-02-23T01:47:45;6.60;99.90
48328;DHT22;34136;51.022;7.082;2024-02-23T01:50:31;6.60;99.90
48328;DHT22;34136;51.022;7.082;2024-02-23T01:53:17;6.60;99.90
48328;DHT22;34136;51.022;7.082;2024-02-23T01:56:04;6.50;99.90
48328;DHT22;34136;51.022;7.082;2024-02-23T01:58:50;6.50;99.90
48328;DHT22;34136;51.022;7.082;2024-02-23T02:01:37;6.50;99.90
48328;DHT22;34136;51.022;7.082;2024-02-23T02:04:23;6.40;99.90
48328;DHT22;34136;51.022;7.082;2024-02-23T02:07:08;6.40;99.90
48328;DHT22;34136;51.022;7.082;2024-02-23T02:09:55;6.40;99.90
48328;DHT22;34136;51.022;7.082;2024-02-23T02:12:40;6.40;99.90
48328;DHT22;34136;51.022;7.082;2024-02-23T02:15:27;6.40;99.90
48328;DHT22;34136;51.022;7.082;2024-02-23T02:18:13;6.40;99.90
48328;DHT22;34136;51.022;7.082;2024-02-23T02:20:59;6.30;99.90
48328;DHT22;34136;51.022;7.082;2024-02-23T02:23:45;6.40;99.90
48328;DHT22;34136;51.022;7.082;2024-02-23T02:26:31;6.40;99.90
48328;DHT22;34136;51.022;7.082;2024-02-23T02:29:17;6.30;99.90
48328;DHT22;34136;51.022;7.082;2024-02-23T02:32:03;6.30;99.90
48328;DHT22;34136;51.022;7.082;2024-02-23T02:34:49;6.20;99.90
48328;DHT22;34136;51.022;7.082;2024-02-23T02:37:36;6.20;99.90
48328;DHT22;34136;51.022;7.082;2024-02-23T02:40:22;6.30;99.90
48328;DHT22;34136;51.022;7.082;2024-02-23T02:43:07;6.20;99.90
48328;DHT22;34136;51.022;7.082;2024-02-23T02:45:54;6.10;99.90
48328;DHT22;34136;51.022;7.082;2024-02-23T02:48:40;6.10;99.90
48328;DHT22;34136;51.022;7.082;2024-02-23T02:51:26;6.10;99.90
48328;DHT22;34136;51.022;7.082;2024-02-23T02:54:12;6.20;99.90
48328;DHT22;34136;51.022;7.082;2024-02-23T02:56:58;6.10;99.90
48328;DHT22;34136;51.022;7.082;2024-02-23T02:59:44;6.10;99.90
48328;DHT22;34136;51.022;7.082;2024-02-23T03:02:33;6.10;99.90
48328;DHT22;34136;51.022;7.082;2024-02-23T03:05:19;6.10;99.90
48328;DHT22;34136;51.022;7.082;2024-02-23T03:08:05;6.00;99.90
48328;DHT22;34136;51.022;7.082;2024-02-23T03:10:51;6.00;99.90
48328;DHT22;34136;51.022;7.082;2024-02-23T03:13:38;5.90;99.90
48328;DHT22;34136;51.022;7.082;2024-02-23T03:16:24;5.90;99.90
48328;DHT22;34136;51.022;7.082;2024-02-23T03:19:10;6.00;99.90
48328;DHT22;34136;51.022;7.082;2024-02-23T03:21:56;6.00;99.90
48328;DHT22;34136;51.022;7.082;2024-02-23T03:24:42;5.90;99.90
48328;DHT22;34136;51.022;7.082;2024-02-23T03:27:28;5.90;99.90
48328;DHT22;34136;51.022;7.082;2024-02-23T03:30:14;5.90;99.90
48328;DHT22;34136;51.022;7.082;2024-02-23T03:33:00;5.90;99.90
48328;DHT22;34136;51.022;7.082;2024-02-23T03:35:46;5.80;99.90
48328;DHT22;34136;51.022;7.082;2024-02-23T03:38:32;5.90;99.90
48328;DHT22;34136;51.022;7.082;2024-02-23T03:41:18;5.90;99.90
48328;DHT22;34136;51.022;7.082;2024-02-23T03:44:04;5.90;99.90
48328;DHT22;34136;51.022;7.082;2024-02-23T03:46:50;5.90;99.90
48328;DHT22;34136;51.022;7.082;2024-02-23T03:49:36;5.90;99.90
48328;DHT22;34136;51.022;7.082;2024-02-23T03:52:22;5.90;99.90
48328;DHT22;34136;51.022;7.082;2024-02-23T03:55:09;5.90;99.90
48328;DHT22;34136;51.022;7.082;2024-02-23T03:57:55;5.90;99.90
48328;DHT22;34136;51.022;7.082;2024-02-23T04:00:41;5.90;99.90
48328;DHT22;34136;51.022;7.082;2024-02-23T04:03:28;6.00;99.90
48328;DHT22;34136;51.022;7.082;2024-02-23T04:06:13;6.00;99.90
48328;DHT22;34136;51.022;7.082;2024-02-23T04:08:59;6.00;99.90
48328;DHT22;34136;51.022;7.082;2024-02-23T04:11:46;6.00;99.90
48328;DHT22;34136;51.022;7.082;2024-02-23T04:14:33;6.00;99.90
48328;DHT22;34136;51.022;7.082;2024-02-23T04:17:19;6.00;99.90
48328;DHT22;34136;51.022;7.082;2024-02-23T04:20:05;5.90;99.90
48328;DHT22;34136;51.022;7.082;2024-02-23T04:22:51;6.00;99.90
48328;DHT22;34136;51.022;7.082;2024-02-23T04:25:37;6.00;99.90
48328;DHT22;34136;51.022;7.082;2024-02-23T04:28:24;5.90;99.90
48328;DHT22;34136;51.022;7.082;2024-02-23T04:31:10;5.90;99.90
48328;DHT22;34136;51.022;7.082;2024-02-23T04:33:56;5.90;99.90
48328;DHT22;34136;51.022;7.082;2024-02-23T04:36:42;5.90;99.90
48328;DHT22;34136;51.022;7.082;2024-02-23T04:39:28;5.90;99.90
48328;DHT22;34136;51.022;7.082;2024-02-23T04:42:14;5.90;99.90
48328;DHT22;34136;51.022;7.082;2024-02-23T04:45:00;5.80;99.90
48328;DHT22;34136;51.022;7.082;2024-02-23T04:47:46;5.80;99.90
48328;DHT22;34136;51.022;7.082;2024-02-23T04:50:32;5.80;99.90
48328;DHT22;34136;51.022;7.082;2024-02-23T04:53:18;5.90;99.90
48328;DHT22;34136;51.022;7.082;2024-02-23T04:56:05;5.90;99.90
48328;DHT22;34136;51.022;7.082;2024-02-23T04:58:51;5.90;99.90
48328;DHT22;34136;51.022;7.082;2024-02-23T05:01:37;5.90;99.90
48328;DHT22;34136;51.022;7.082;2024-02-23T05:04:23;5.90;99.90
48328;DHT22;34136;51.022;7.082;2024-02-23T05:07:09;5.90;99.90
48328;DHT22;34136;51.022;7.082;2024-02-23T05:09:55;5.90;99.90
48328;DHT22;34136;51.022;7.082;2024-02-23T05:12:48;5.90;99.90
48328;DHT22;34136;51.022;7.082;2024-02-23T05:15:41;5.80;99.90
48328;DHT22;34136;51.022;7.082;2024-02-23T05:18:27;5.90;99.90
48328;DHT22;34136;51.022;7.082;2024-02-23T05:21:16;5.90;99.90
48328;DHT22;34136;51.022;7.082;2024-02-23T05:24:12;6.00;99.90
48328;DHT22;34136;51.022;7.082;2024-02-23T05:26:58;6.00;99.90
48328;DHT22;34136;51.022;7.082;2024-02-23T05:29:45;6.10;99.90
48328;DHT22;34136;51.022;7.082;2024-02-23T05:32:37;6.10;99.90
48328;DHT22;34136;51.022;7.082;2024-02-23T05:35:48;6.10;99.90
48328;DHT22;34136;51.022;7.082;2024-02-23T05:38:34;6.10;99.90
48328;DHT22;34136;51.022;7.082;2024-02-23T05:41:20;6.10;99.90
48328;DHT22;34136;51.022;7.082;2024-02-23T05:44:07;6.00;99.90
48328;DHT22;34136;51.022;7.082;2024-02-23T05:46:53;6.00;99.90
48328;DHT22;34136;51.022;7.082;2024-02-23T05:49:39;5.90;99.90
48328;DHT22;34136;51.022;7.082;2024-02-23T05:52:26;5.90;99.90
48328;DHT22;34136;51.022;7.082;2024-02-23T05:55:12;5.90;99.90
48328;DHT22;34136;51.022;7.082;2024-02-23T05:57:58;5.90;99.90
48328;DHT22;34136;51.022;7.082;2024-02-23T06:00:44;5.90;99.90
48328;DHT22;34136;51.022;7.082;2024-02-23T06:03:30;5.90;99.90
48328;DHT22;34136;51.022;7.082;2024-02-23T06:06:16;5.80;99.90
48328;DHT22;34136;51.022;7.082;2024-02-23T06:09:02;5.80;99.90
48328;DHT22;34136;51.022;7.082;2024-02-23T06:11:48;5.80;99.90
48328;DHT22;34136;51.022;7.082;2024-02-23T06:14:35;5.70;99.90
48328;DHT22;34136;51.022;7.082;2024-02-23T06:17:21;5.70;99.90
48328;DHT22;34136;51.022;7.082;2024-02-23T06:20:07;5.70;99.90
48328;DHT22;34136;51.022;7.082;2024-02-23T06:22:55;5.60;99.90
48328;DHT22;34136;51.022;7.082;2024-02-23T06:25:42;5.70;99.90
48328;DHT22;34136;51.022;7.082;2024-02-23T06:28:28;5.70;99.90
48328;DHT22;34136;51.022;7.082;2024-02-23T06:31:14;5.60;99.90
48328;DHT22;34136;51.022;7.082;2024-02-23T06:34:00;5.60;99.90
48328;DHT22;34136;51.022;7.082;2024-02-23T06:36:46;5.60;99.90
48328;DHT22;34136;51.022;7.082;2024-02-23T06:39:32;5.50;99.90
48328;DHT22;34136;51.022;7.082;2024-02-23T06:42:18;5.60;99.90
48328;DHT22;34136;51.022;7.082;2024-02-23T06:45:04;5.60;99.90
48328;DHT22;34136;51.022;7.082;2024-02-23T06:47:51;5.60;99.90
48328;DHT22;34136;51.022;7.082;2024-02-23T06:50:37;5.60;99.90
48328;DHT22;34136;51.022;7.082;2024-02-23T06:53:23;5.60;99.90
48328;DHT22;34136;51.022;7.082;2024-02-23T06:56:09;5.60;99.90
48328;DHT22;34136;51.022;7.082;2024-02-23T06:58:55;5.50;99.90
48328;DHT22;34136;51.022;7.082;2024-02-23T07:01:51;5.50;99.90
48328;DHT22;34136;51.022;7.082;2024-02-23T07:04:37;5.50;99.90
48328;DHT22;34136;51.022;7.082;2024-02-23T07:07:23;5.40;99.90
48328;DHT22;34136;51.022;7.082;2024-02-23T07:10:09;5.30;99.90
48328;DHT22;34136;51.022;7.082;2024-02-23T07:12:55;5.30;99.90
48328;DHT22;34136;51.022;7.082;2024-02-23T07:15:41;5.30;99.90
48328;DHT22;34136;51.022;7.082;2024-02-23T07:18:26;5.30;99.90
48328;DHT22;34136;51.022;7.082;2024-02-23T07:21:13;5.40;99.90
48328;DHT22;34136;51.022;7.082;2024-02-23T07:24:15;5.30;99.90
48328;DHT22;34136;51.022;7.082;2024-02-23T07:27:04;5.30;99.90
48328;DHT22;34136;51.022;7.082;2024-02-23T07:30:14;5.40;99.90
48328;DHT22;34136;51.022;7.082;2024-02-23T07:33:00;5.40;99.90
48328;DHT22;34136;51.022;7.082;2024-02-23T07:35:46;5.50;99.90
48328;DHT22;34136;51.022;7.082;2024-02-23T07:38:50;5.60;99.90
48328;DHT22;34136;51.022;7.082;2024-02-23T07:41:38;5.60;99.90
48328;DHT22;34136;51.022;7.082;2024-02-23T07:44:24;5.60;99.90
48328;DHT22;34136;51.022;7.082;2024-02-23T07:47:11;5.70;99.90
48328;DHT22;34136;51.022;7.082;2024-02-23T07:50:12;5.60;99.90
48328;DHT22;34136;51.022;7.082;2024-02-23T07:52:58;5.70;99.90
48328;DHT22;34136;51.022;7.082;2024-02-23T07:55:44;5.70;99.90
48328;DHT22;34136;51.022;7.082;2024-02-23T07:58:29;5.70;99.90
48328;DHT22;34136;51.022;7.082;2024-02-23T08:01:15;5.80;99.90
48328;DHT22;34136;51.022;7.082;2024-02-23T15:12:55;9.90;99.90
48328;DHT22;34136;51.022;7.082;2024-02-23T15:15:41;9.90;99.90
48328;DHT22;34136;51.022;7.082;2024-02-23T15:18:28;9.80;99.90
48328;DHT22;34136;51.022;7.082;2024-02-23T15:21:16;9.80;99.90
48328;DHT22;34136;51.022;7.082;2024-02-23T15:24:03;9.90;99.90
48328;DHT22;34136;51.022;7.082;2024-02-23T15:26:49;9.80;99.90
48328;DHT22;34136;51.022;7.082;2024-02-23T15:29:36;9.90;99.90
48328;DHT22;34136;51.022;7.082;2024-02-23T15:32:22;9.80;99.90
48328;DHT22;34136;51.022;7.082;2024-02-23T15:35:10;9.80;99.90
48328;DHT22;34136;51.022;7.082;2024-02-23T15:37:56;9.70;99.90
48328;DHT22;34136;51.022;7.082;2024-02-23T15:40:42;9.70;99.90
48328;DHT22;34136;51.022;7.082;2024-02-23T15:43:28;9.60;99.90
48328;DHT22;34136;51.022;7.082;2024-02-23T15:46:17;9.50;99.90
48328;DHT22;34136;51.022;7.082;2024-02-23T15:49:03;9.60;99.90
48328;DHT22;34136;51.022;7.082;2024-02-23T15:51:53;9.60;99.90
48328;DHT22;34136;51.022;7.082;2024-02-23T15:54:40;9.50;99.90
48328;DHT22;34136;51.022;7.082;2024-02-23T15:57:26;9.60;99.90
48328;DHT22;34136;51.022;7.082;2024-02-23T16:00:15;9.60;99.90
48328;DHT22;34136;51.022;7.082;2024-02-23T16:03:01;9.50;99.90
48328;DHT22;34136;51.022;7.082;2024-02-23T16:05:47;9.60;99.90
48328;DHT22;34136;51.022;7.082;2024-02-23T16:08:43;9.60;99.90
48328;DHT22;34136;51.022;7.082;2024-02-23T16:11:32;9.60;99.90
48328;DHT22;34136;51.022;7.082;2024-02-23T16:14:37;9.50;99.90
48328;DHT22;34136;51.022;7.082;2024-02-23T16:17:29;9.60;99.90
48328;DHT22;34136;51.022;7.082;2024-02-23T16:20:16;9.50;99.90
48328;DHT22;34136;51.022;7.082;2024-02-23T16:23:02;9.60;99.90
48328;DHT22;34136;51.022;7.082;2024-02-23T16:25:48;9.50;99.90
48328;DHT22;34136;51.022;7.082;2024-02-23T16:28:34;9.50;99.90
48328;DHT22;34136;51.022;7.082;2024-02-23T16:31:20;9.50;99.90
48328;DHT22;34136;51.022;7.082;2024-02-23T16:34:06;9.50;99.90
48328;DHT22;34136;51.022;7.082;2024-02-23T16:36:53;9.40;99.90
48328;DHT22;34136;51.022;7.082;2024-02-23T16:39:38;9.50;99.90
48328;DHT22;34136;51.022;7.082;2024-02-23T16:42:24;9.50;99.90
48328;DHT22;34136;51.022;7.082;2024-02-23T16:45:10;9.40;99.90
48328;DHT22;34136;51.022;7.082;2024-02-23T16:47:56;9.50;99.90
48328;DHT22;34136;51.022;7.082;2024-02-23T16:50:42;9.50;99.90
48328;DHT22;34136;51.022;7.082;2024-02-23T16:53:28;9.30;99.90
48328;DHT22;34136;51.022;7.082;2024-02-23T16:56:14;9.30;99.90
48328;DHT22;34136;51.022;7.082;2024-02-23T16:59:00;9.20;99.90
48328;DHT22;34136;51.022;7.082;2024-02-23T17:01:47;9.20;99.90
48328;DHT22;34136;51.022;7.082;2024-02-23T17:04:33;9.30;99.90
48328;DHT22;34136;51.022;7.082;2024-02-23T17:07:19;9.20;99.90
48328;DHT22;34136;51.022;7.082;2024-02-23T17:10:05;9.20;99.90
48328;DHT22;34136;51.022;7.082;2024-02-23T17:12:52;9.10;99.90
48328;DHT22;34136;51.022;7.082;2024-02-23T17:15:38;9.10;99.90
48328;DHT22;34136;51.022;7.082;2024-02-23T17:18:24;9.10;99.90
48328;DHT22;34136;51.022;7.082;2024-02-23T17:21:10;9.10;99.90
48328;DHT22;34136;51.022;7.082;2024-02-23T17:23:56;9.10;99.90
48328;DHT22;34136;51.022;7.082;2024-02-23T17:26:42;9.10;99.90
48328;DHT22;34136;51.022;7.082;2024-02-23T17:29:28;9.00;99.90
48328;DHT22;34136;51.022;7.082;2024-02-23T17:32:14;9.00;99.90
48328;DHT22;34136;51.022;7.082;2024-02-23T17:35:00;9.00;99.90
48328;DHT22;34136;51.022;7.082;2024-02-23T17:37:49;9.00;99.90
48328;DHT22;34136;51.022;7.082;2024-02-23T17:40:36;9.10;99.90
48328;DHT22;34136;51.022;7.082;2024-02-23T17:43:21;9.00;99.90
48328;DHT22;34136;51.022;7.082;2024-02-23T17:46:23;9.00;99.90
48328;DHT22;34136;51.022;7.082;2024-02-23T17:49:09;9.00;99.90
48328;DHT22;34136;51.022;7.082;2024-02-23T17:51:54;9.00;99.90
48328;DHT22;34136;51.022;7.082;2024-02-23T17:54:44;9.00;99.90
48328;DHT22;34136;51.022;7.082;2024-02-23T17:57:30;9.00;99.90
48328;DHT22;34136;51.022;7.082;2024-02-23T18:00:19;8.90;99.90
48328;DHT22;34136;51.022;7.082;2024-02-23T18:03:05;8.70;99.90
48328;DHT22;34136;51.022;7.082;2024-02-23T18:05:51;8.60;99.90
48328;DHT22;34136;51.022;7.082;2024-02-23T18:08:38;8.50;99.90
48328;DHT22;34136;51.022;7.082;2024-02-23T18:11:25;8.50;99.90
48328;DHT22;34136;51.022;7.082;2024-02-23T18:14:12;8.40;99.90
48328;DHT22;34136;51.022;7.082;2024-02-23T18:17:01;8.40;99.90
48328;DHT22;34136;51.022;7.082;2024-02-23T18:19:48;8.40;99.90
48328;DHT22;34136;51.022;7.082;2024-02-23T18:22:34;8.30;99.90
48328;DHT22;34136;51.022;7.082;2024-02-23T18:25:20;8.30;99.90
48328;DHT22;34136;51.022;7.082;2024-02-23T18:28:06;8.30;99.90
48328;DHT22;34136;51.022;7.082;2024-02-23T18:30:52;8.30;99.90
48328;DHT22;34136;51.022;7.082;2024-02-23T18:33:39;8.20;99.90
48328;DHT22;34136;51.022;7.082;2024-02-23T18:36:25;8.30;99.90
48328;DHT22;34136;51.022;7.082;2024-02-23T18:39:11;8.30;99.90
48328;DHT22;34136;51.022;7.082;2024-02-23T18:41:57;8.20;99.90
48328;DHT22;34136;51.022;7.082;2024-02-23T23:17:10;6.50;99.90
48328;DHT22;34136;51.022;7.082;2024-02-23T23:19:56;6.40;99.90
48328;DHT22;34136;51.022;7.082;2024-02-23T23:22:42;6.40;99.90
48328;DHT22;34136;51.022;7.082;2024-02-23T23:25:28;6.40;99.90
48328;DHT22;34136;51.022;7.082;2024-02-23T23:28:14;6.40;99.90
48328;DHT22;34136;51.022;7.082;2024-02-23T23:31:00;6.40;99.90
48328;DHT22;34136;51.022;7.082;2024-02-23T23:33:46;6.40;99.90
48328;DHT22;34136;51.022;7.082;2024-02-23T23:36:32;6.30;99.90
48328;DHT22;34136;51.022;7.082;2024-02-23T23:39:18;6.30;99.90
48328;DHT22;34136;51.022;7.082;2024-02-23T23:42:04;6.30;99.90
48328;DHT22;34136;51.022;7.082;2024-02-23T23:44:50;6.40;99.90
48328;DHT22;34136;51.022;7.082;2024-02-23T23:47:36;6.30;99.90
48328;DHT22;34136;51.022;7.082;2024-02-23T23:50:22;6.20;99.90
48328;DHT22;34136;51.022;7.082;2024-02-23T23:53:08;6.20;99.90
48328;DHT22;34136;51.022;7.082;2024-02-23T23:55:54;6.20;99.90
48328;DHT22;34136;51.022;7.082;2024-02-23T23:58:40;6.20;99.90
